Time;durP1;ratioP1;P1;durP2;ratioP2;P2;SDS_P1;SDS_P2;PMS_P1;PMS_P2;Temp;Humidity;BMP_temperature;BMP_pressure;BME280_temperature;BME280_humidity;BME280_pressure;Samples;Min_cycle;Max_cycle;Signal;HPM_P1;HPM_P2
2020/12/03 00:01:10;;;;;;;0.55;0.55;;;1.20;99.90;;;;;;5034845;28;20513;-62
2020/12/03 00:03:45;;;;;;;0.38;0.38;;;1.20;99.90;;;;;;5034949;28;20180;-63
2020/12/03 00:06:21;;;;;;;0.30;0.30;;;1.30;99.90;;;;;;5034582;28;20173;-63
2020/12/03 00:08:52;;;;;;;0.50;0.50;;;1.30;99.90;;;;;;5033654;28;20174;-66
2020/12/03 00:11:19;;;;;;;0.32;0.32;;;1.40;99.90;;;;;;5033981;28;20198;-63
2020/12/03 00:13:44;;;;;;;0.40;0.40;;;1.40;99.90;;;;;;5034064;28;20174;-66
2020/12/03 00:16:10;;;;;;;0.30;0.30;;;1.40;99.90;;;;;;5033197;28;20683;-64
2020/12/03 00:18:37;;;;;;;0.77;0.77;;;1.30;99.90;;;;;;5033867;28;20173;-64
2020/12/03 00:21:06;;;;;;;0.40;0.40;;;1.40;99.90;;;;;;5032470;28;20437;-63
2020/12/03 00:23:33;;;;;;;0.50;0.50;;;1.40;99.90;;;;;;5033852;28;20248;-63
2020/12/03 00:25:59;;;;;;;0.75;0.75;;;1.40;99.90;;;;;;5034233;28;20235;-62
2020/12/03 00:28:30;;;;;;;0.40;0.40;;;1.40;99.90;;;;;;5033637;28;20616;-62
2020/12/03 00:30:56;;;;;;;0.45;0.45;;;1.40;99.90;;;;;;5033590;28;20189;-64
2020/12/03 00:33:22;;;;;;;0.43;0.43;;;1.40;99.90;;;;;;5033247;28;20173;-63
2020/12/03 00:35:49;;;;;;;0.70;0.70;;;1.40;99.90;;;;;;5033800;28;20210;-63
2020/12/03 00:38:16;;;;;;;0.47;0.47;;;1.40;99.90;;;;;;5033620;28;20198;-64
2020/12/03 00:40:42;;;;;;;0.30;0.30;;;1.30;99.90;;;;;;5033428;28;20185;-63
2020/12/03 00:43:07;;;;;;;0.33;0.33;;;1.30;99.90;;;;;;5033628;28;20170;-63
2020/12/03 00:45:33;;;;;;;0.50;0.50;;;1.30;99.90;;;;;;5033630;28;20589;-63
2020/12/03 00:47:59;;;;;;;0.40;0.40;;;1.40;99.90;;;;;;5033104;28;20628;-63
2020/12/03 00:50:24;;;;;;;0.83;0.83;;;1.30;99.90;;;;;;5033137;28;20177;-63
2020/12/03 00:52:51;;;;;;;0.30;0.30;;;1.40;99.90;;;;;;5032233;28;20240;-63
2020/12/03 00:55:16;;;;;;;0.82;0.82;;;1.40;99.90;;;;;;5033526;28;20247;-63
2020/12/03 00:57:42;;;;;;;1.57;1.57;;;1.40;99.90;;;;;;5032964;28;20178;-63
2020/12/03 01:00:10;;;;;;;0.30;0.30;;;1.40;99.90;;;;;;5033171;28;20190;-64
2020/12/03 01:02:36;;;;;;;0.45;0.45;;;1.40;99.90;;;;;;5032843;28;20243;-64
2020/12/03 01:05:04;;;;;;;0.40;0.40;;;1.40;99.90;;;;;;5033488;28;20696;-64
2020/12/03 01:07:29;;;;;;;0.40;0.40;;;1.50;99.90;;;;;;5033178;28;20537;-64
2020/12/03 01:09:55;;;;;;;0.40;0.40;;;1.50;99.90;;;;;;5033288;28;20174;-64
2020/12/03 01:12:20;;;;;;;1.27;1.17;;;1.50;99.90;;;;;;5032880;28;20255;-64
2020/12/03 01:14:46;;;;;;;0.30;0.30;;;1.50;99.90;;;;;;5033406;28;20232;-64
2020/12/03 01:17:14;;;;;;;0.50;0.50;;;1.50;99.90;;;;;;5032982;28;20532;-64
2020/12/03 01:19:41;;;;;;;0.40;0.40;;;1.50;99.90;;;;;;5033175;28;20534;-64
2020/12/03 01:22:07;;;;;;;0.50;0.50;;;1.50;99.90;;;;;;5032713;28;20193;-63
2020/12/03 01:24:33;;;;;;;0.40;0.40;;;1.50;99.90;;;;;;5033168;28;20705;-64
2020/12/03 01:26:59;;;;;;;0.30;0.30;;;1.50;99.90;;;;;;5032504;28;20182;-65
2020/12/03 01:29:25;;;;;;;0.40;0.40;;;1.50;99.90;;;;;;5033308;28;20176;-64
2020/12/03 01:31:52;;;;;;;1.60;1.20;;;1.50;99.90;;;;;;5031732;28;20209;-64
2020/12/03 01:34:19;;;;;;;0.88;0.88;;;1.50;99.90;;;;;;5033272;28;20189;-64
2020/12/03 01:36:48;;;;;;;0.43;0.43;;;1.50;99.90;;;;;;5032661;28;20202;-64
2020/12/03 01:39:14;;;;;;;0.30;0.30;;;1.50;99.90;;;;;;5033533;28;20166;-64
2020/12/03 01:41:39;;;;;;;0.30;0.30;;;1.50;99.90;;;;;;5032224;28;20195;-64
2020/12/03 01:44:06;;;;;;;1.00;1.00;;;1.40;99.90;;;;;;5033041;28;20178;-64
2020/12/03 01:46:32;;;;;;;0.30;0.30;;;1.40;99.90;;;;;;5032694;28;20209;-63
2020/12/03 01:49:04;;;;;;;0.60;0.60;;;1.40;99.90;;;;;;5032806;28;20242;-63
2020/12/03 01:51:39;;;;;;;1.52;1.42;;;1.40;99.90;;;;;;5031756;28;20658;-63
2020/12/03 01:54:11;;;;;;;0.80;0.80;;;1.40;99.90;;;;;;5032841;28;20192;-63
2020/12/03 01:56:58;;;;;;;0.40;0.40;;;1.40;99.90;;;;;;5031082;28;20194;-63
2020/12/03 01:59:27;;;;;;;0.68;0.68;;;1.40;99.90;;;;;;5032308;28;20166;-64
2020/12/03 02:01:53;;;;;;;0.68;0.68;;;1.30;99.90;;;;;;5032119;28;20202;-64
2020/12/03 02:04:18;;;;;;;0.45;0.45;;;1.30;99.90;;;;;;5033514;28;20517;-63
2020/12/03 02:06:44;;;;;;;0.50;0.50;;;1.30;99.90;;;;;;5036467;28;20186;-64
2020/12/03 02:09:13;;;;;;;0.30;0.30;;;1.30;99.90;;;;;;5036471;28;20170;-64
2020/12/03 02:11:39;;;;;;;0.40;0.40;;;1.30;99.90;;;;;;5035893;28;20544;-64
2020/12/03 02:14:09;;;;;;;3.40;3.25;;;1.30;99.90;;;;;;5036706;28;20169;-64
2020/12/03 02:16:38;;;;;;;0.85;0.85;;;1.20;99.90;;;;;;5036051;28;20206;-64
2020/12/03 02:19:18;;;;;;;0.30;0.30;;;1.30;99.90;;;;;;5036592;28;20229;-64
2020/12/03 02:21:44;;;;;;;0.40;0.40;;;1.30;99.90;;;;;;5034975;28;20205;-64
2020/12/03 02:24:10;;;;;;;0.75;0.73;;;1.20;99.90;;;;;;5036234;28;20171;-64
2020/12/03 02:26:36;;;;;;;0.50;0.50;;;1.20;99.90;;;;;;5035732;28;20240;-64
2020/12/03 02:29:02;;;;;;;0.30;0.30;;;1.20;99.90;;;;;;5036230;28;20181;-64
2020/12/03 02:31:28;;;;;;;0.60;0.60;;;1.10;99.90;;;;;;5034978;28;20282;-64
2020/12/03 02:33:53;;;;;;;0.40;0.40;;;1.10;99.90;;;;;;5036059;28;20207;-64
2020/12/03 02:36:19;;;;;;;0.40;0.40;;;1.10;99.90;;;;;;5035506;28;20202;-64
2020/12/03 02:38:45;;;;;;;0.30;0.30;;;1.10;99.90;;;;;;5035969;28;20163;-63
2020/12/03 02:41:10;;;;;;;0.30;0.30;;;1.00;99.90;;;;;;5034923;28;20229;-64
2020/12/03 02:43:37;;;;;;;0.40;0.40;;;1.00;99.90;;;;;;5035561;28;20178;-64
2020/12/03 02:46:03;;;;;;;0.40;0.40;;;0.90;99.90;;;;;;5035901;28;20237;-63
2020/12/03 02:48:28;;;;;;;0.88;0.82;;;0.90;99.90;;;;;;5035848;28;20174;-64
2020/12/03 02:50:54;;;;;;;0.30;0.30;;;1.00;99.90;;;;;;5035186;28;20174;-64
2020/12/03 02:53:20;;;;;;;2.20;2.10;;;1.00;99.90;;;;;;5037475;28;20198;-64
2020/12/03 02:55:46;;;;;;;0.57;0.57;;;1.00;99.90;;;;;;5034824;28;20460;-64
2020/12/03 02:58:11;;;;;;;0.50;0.50;;;0.90;99.90;;;;;;5035771;28;20166;-64
2020/12/03 03:00:37;;;;;;;0.43;0.43;;;1.00;99.90;;;;;;5034722;28;20253;-64
2020/12/03 03:03:02;;;;;;;0.50;0.50;;;1.00;99.90;;;;;;5035569;28;20216;-64
2020/12/03 03:05:28;;;;;;;1.43;1.43;;;1.00;99.90;;;;;;5035008;28;20214;-64
2020/12/03 03:07:54;;;;;;;1.30;1.30;;;1.00;99.90;;;;;;5035465;28;20179;-64
2020/12/03 03:10:22;;;;;;;0.60;0.60;;;1.00;99.90;;;;;;5034651;28;20192;-64
2020/12/03 03:12:49;;;;;;;2.45;1.58;;;1.00;99.90;;;;;;5035028;28;20193;-62
2020/12/03 03:15:17;;;;;;;0.35;0.35;;;0.90;99.90;;;;;;5033630;28;20222;-64
2020/12/03 03:17:42;;;;;;;0.40;0.40;;;1.00;99.90;;;;;;5034418;28;20285;-63
2020/12/03 03:20:08;;;;;;;0.47;0.47;;;1.00;99.90;;;;;;5034519;28;20636;-63
2020/12/03 03:22:34;;;;;;;0.30;0.30;;;1.00;99.90;;;;;;5035228;28;20186;-63
2020/12/03 03:24:59;;;;;;;0.30;0.30;;;1.10;99.90;;;;;;5035020;28;20240;-63
2020/12/03 03:27:25;;;;;;;0.60;0.60;;;1.10;99.90;;;;;;5035171;28;20628;-63
2020/12/03 03:29:50;;;;;;;0.30;0.30;;;1.10;99.90;;;;;;5034165;28;20170;-63
2020/12/03 03:32:16;;;;;;;0.40;0.40;;;1.20;99.90;;;;;;5035012;28;20217;-64
2020/12/03 03:34:42;;;;;;;0.30;0.30;;;1.20;99.90;;;;;;5034484;28;20174;-65
2020/12/03 03:37:07;;;;;;;0.40;0.40;;;1.30;99.90;;;;;;5035095;28;20556;-63
2020/12/03 03:39:33;;;;;;;0.77;0.77;;;1.30;99.90;;;;;;5034674;28;20178;-64
2020/12/03 03:41:59;;;;;;;0.40;0.40;;;1.30;99.90;;;;;;5034679;28;20652;-64
2020/12/03 03:44:24;;;;;;;0.40;0.40;;;1.40;99.90;;;;;;5034354;28;20166;-64
2020/12/03 03:46:51;;;;;;;0.47;0.47;;;1.50;99.90;;;;;;5034884;28;20170;-64
2020/12/03 03:49:16;;;;;;;1.95;1.85;;;1.50;99.90;;;;;;5034358;28;20656;-63
2020/12/03 03:51:42;;;;;;;0.83;0.83;;;1.50;99.90;;;;;;5034245;28;20206;-63
2020/12/03 03:54:07;;;;;;;0.30;0.30;;;1.50;99.90;;;;;;5034208;28;20222;-64
2020/12/03 03:56:33;;;;;;;0.37;0.37;;;1.50;99.90;;;;;;5034510;28;20534;-64
2020/12/03 03:58:59;;;;;;;0.40;0.40;;;1.50;99.90;;;;;;5034275;28;20174;-63
2020/12/03 04:01:24;;;;;;;0.40;0.40;;;1.50;99.90;;;;;;5034089;28;20186;-64
2020/12/03 04:03:50;;;;;;;0.87;0.87;;;1.60;99.90;;;;;;5034115;28;20178;-63
2020/12/03 04:06:16;;;;;;;0.40;0.40;;;1.60;99.90;;;;;;5034275;28;20309;-63
2020/12/03 04:08:42;;;;;;;0.70;0.70;;;1.60;99.90;;;;;;5034086;28;20185;-64
2020/12/03 04:11:08;;;;;;;0.30;0.30;;;1.70;99.90;;;;;;5033531;28;20561;-65
2020/12/03 04:13:33;;;;;;;0.30;0.30;;;1.70;99.90;;;;;;5033630;28;20182;-64
2020/12/03 04:15:59;;;;;;;0.40;0.40;;;1.70;99.90;;;;;;5034278;28;20556;-64
2020/12/03 04:18:27;;;;;;;0.30;0.30;;;1.70;99.90;;;;;;5033715;28;20201;-64
2020/12/03 04:20:56;;;;;;;0.50;0.50;;;1.60;99.90;;;;;;5033564;28;20475;-64
2020/12/03 04:23:21;;;;;;;0.40;0.40;;;1.60;99.90;;;;;;5033893;28;20228;-64
2020/12/03 04:25:47;;;;;;;1.53;1.43;;;1.60;99.90;;;;;;5034153;28;20593;-64
2020/12/03 04:28:13;;;;;;;1.90;1.80;;;1.50;99.90;;;;;;5033573;28;20236;-64
2020/12/03 04:30:39;;;;;;;0.30;0.30;;;1.50;99.90;;;;;;5033509;28;20185;-64
2020/12/03 04:33:04;;;;;;;0.30;0.30;;;1.50;99.90;;;;;;5033481;28;21018;-63
2020/12/03 04:35:30;;;;;;;0.30;0.30;;;1.50;99.90;;;;;;5033770;28;20205;-63
2020/12/03 04:37:56;;;;;;;0.40;0.40;;;1.70;99.90;;;;;;5033555;28;20177;-63
2020/12/03 04:40:29;;;;;;;0.40;0.40;;;1.70;99.90;;;;;;5032982;28;20181;-64
2020/12/03 04:42:55;;;;;;;0.52;0.52;;;1.80;99.90;;;;;;5033347;28;20711;-63
2020/12/03 04:45:37;;;;;;;0.50;0.50;;;1.70;99.90;;;;;;5033564;28;20588;-63
2020/12/03 04:48:31;;;;;;;0.82;0.82;;;1.80;99.90;;;;;;5033301;28;20174;-64
2020/12/03 04:51:24;;;;;;;0.40;0.40;;;1.80;99.90;;;;;;5032910;28;20186;-64
2020/12/03 04:54:04;;;;;;;0.40;0.40;;;1.80;99.90;;;;;;5032809;28;20186;-62
2020/12/03 04:57:12;;;;;;;0.30;0.30;;;1.80;99.90;;;;;;5032973;28;20765;-64
2020/12/03 05:00:00;;;;;;;0.30;0.30;;;1.80;99.90;;;;;;5033471;28;20223;-63
2020/12/03 05:02:37;;;;;;;0.40;0.40;;;1.80;99.90;;;;;;5033348;28;20192;-63
2020/12/03 05:05:24;;;;;;;0.30;0.30;;;1.90;99.90;;;;;;5032913;28;20182;-63
2020/12/03 05:07:59;;;;;;;0.30;0.30;;;1.90;99.90;;;;;;5033575;28;20185;-63
2020/12/03 05:10:47;;;;;;;1.15;1.10;;;1.80;99.90;;;;;;5032479;28;20165;-63
2020/12/03 05:13:34;;;;;;;1.60;0.98;;;1.80;99.90;;;;;;5033476;28;20275;-64
2020/12/03 05:16:14;;;;;;;0.38;0.38;;;1.90;99.90;;;;;;5032984;28;20198;-64
2020/12/03 05:19:00;;;;;;;0.40;0.40;;;1.90;99.90;;;;;;5032344;28;20307;-64
2020/12/03 05:21:29;;;;;;;0.60;0.60;;;1.80;99.90;;;;;;5032655;28;20240;-63
2020/12/03 05:23:55;;;;;;;0.40;0.40;;;1.80;99.90;;;;;;5033568;28;20211;-64
2020/12/03 05:26:28;;;;;;;1.83;0.83;;;1.90;99.90;;;;;;5032454;28;20668;-63
2020/12/03 05:28:54;;;;;;;0.40;0.40;;;1.90;99.90;;;;;;5032894;28;20170;-63
2020/12/03 05:31:35;;;;;;;0.40;0.40;;;2.00;99.90;;;;;;5032275;28;20204;-63
2020/12/03 05:34:11;;;;;;;0.30;0.30;;;2.00;99.90;;;;;;5033325;28;20177;-63
2020/12/03 05:37:03;;;;;;;0.40;0.40;;;2.00;99.90;;;;;;5033112;28;20544;-64
2020/12/03 05:39:34;;;;;;;0.40;0.40;;;1.80;99.90;;;;;;5033579;28;20265;-63
2020/12/03 05:42:06;;;;;;;0.38;0.38;;;1.90;99.90;;;;;;5036537;28;20550;-64
2020/12/03 05:44:51;;;;;;;0.50;0.50;;;1.80;99.90;;;;;;5036587;28;20763;-64
2020/12/03 05:47:26;;;;;;;0.60;0.60;;;1.80;99.90;;;;;;5036923;28;20575;-64
2020/12/03 05:49:57;;;;;;;2.25;1.30;;;2.00;99.90;;;;;;5035823;28;20509;-64
2020/12/03 05:52:26;;;;;;;0.30;0.30;;;2.00;99.90;;;;;;5036800;28;20598;-64
2020/12/03 05:55:09;;;;;;;0.30;0.30;;;2.00;99.90;;;;;;5036278;28;20508;-64
2020/12/03 05:57:40;;;;;;;1.88;1.77;;;2.00;99.90;;;;;;5036840;28;20205;-64
2020/12/03 06:00:20;;;;;;;0.30;0.30;;;2.10;99.90;;;;;;5035726;28;20171;-64
2020/12/03 06:02:54;;;;;;;3.72;3.42;;;2.10;99.90;;;;;;5036810;28;20190;-64
2020/12/03 06:05:32;;;;;;;0.40;0.40;;;2.10;99.90;;;;;;5036393;28;20231;-64
2020/12/03 06:08:34;;;;;;;0.55;0.55;;;2.10;99.90;;;;;;5036639;28;20244;-64
2020/12/03 06:11:18;;;;;;;0.30;0.30;;;2.00;99.90;;;;;;5035680;28;20177;-63
2020/12/03 06:14:31;;;;;;;0.40;0.40;;;2.00;99.90;;;;;;5036519;28;20174;-63
2020/12/03 06:16:59;;;;;;;0.57;0.57;;;1.90;99.90;;;;;;5030096;28;20245;-64
2020/12/03 06:19:34;;;;;;;0.30;0.30;;;1.90;99.90;;;;;;5042959;28;20193;-63
2020/12/03 06:22:21;;;;;;;0.30;0.30;;;1.90;99.90;;;;;;5054960;28;20207;-63
2020/12/03 06:25:12;;;;;;;0.50;0.50;;;1.90;99.90;;;;;;5053186;28;20203;-62
2020/12/03 06:27:54;;;;;;;0.30;0.30;;;1.80;99.90;;;;;;5036300;28;20166;-63
2020/12/03 06:30:30;;;;;;;0.30;0.30;;;1.80;99.90;;;;;;5035364;28;20182;-64
2020/12/03 06:33:14;;;;;;;0.60;0.60;;;1.90;99.90;;;;;;5035258;28;20316;-63
2020/12/03 06:35:59;;;;;;;0.30;0.30;;;2.00;99.90;;;;;;5036279;28;20198;-64
2020/12/03 06:38:39;;;;;;;0.35;0.35;;;2.00;99.90;;;;;;5035788;28;20167;-64
2020/12/03 06:41:22;;;;;;;0.55;0.55;;;2.00;99.90;;;;;;5035208;28;20280;-64
2020/12/03 06:44:11;;;;;;;0.30;0.30;;;2.00;99.90;;;;;;5035524;28;20177;-64
2020/12/03 06:47:17;;;;;;;0.40;0.40;;;2.00;99.90;;;;;;5035389;28;20240;-64
2020/12/03 06:49:42;;;;;;;0.30;0.30;;;2.00;99.90;;;;;;5035636;28;20264;-61
2020/12/03 06:53:01;;;;;;;0.30;0.30;;;2.00;99.90;;;;;;5033740;28;20193;-61
2020/12/03 06:55:54;;;;;;;0.30;0.30;;;2.00;99.90;;;;;;5052332;28;20595;-62
2020/12/03 06:58:44;;;;;;;0.32;0.32;;;1.90;99.90;;;;;;5035814;28;20241;-62
2020/12/03 07:01:31;;;;;;;0.30;0.30;;;2.00;99.90;;;;;;5035064;28;20236;-62
2020/12/03 07:04:41;;;;;;;0.70;0.70;;;2.00;99.90;;;;;;5034832;28;20602;-62
2020/12/03 07:07:28;;;;;;;0.30;0.30;;;2.10;99.90;;;;;;5015792;28;20186;-61
2020/12/03 07:10:09;;;;;;;0.57;0.57;;;2.00;99.90;;;;;;5019291;28;20170;-61
2020/12/03 07:12:54;;;;;;;0.30;0.30;;;2.00;99.90;;;;;;5034956;28;20201;-62
2020/12/03 07:15:40;;;;;;;0.55;0.55;;;2.00;99.90;;;;;;5034903;28;20237;-65
2020/12/03 07:18:12;;;;;;;0.47;0.47;;;2.00;99.90;;;;;;5035386;28;20636;-61
2020/12/03 07:20:49;;;;;;;1.30;1.30;;;2.10;99.90;;;;;;5034441;28;20205;-63
2020/12/03 07:23:42;;;;;;;0.82;0.82;;;2.10;99.90;;;;;;5035005;28;20544;-63
2020/12/03 07:26:52;;;;;;;0.40;0.40;;;2.20;99.90;;;;;;5034923;28;20588;-62
2020/12/03 07:30:02;;;;;;;3.33;2.05;;;2.20;99.90;;;;;;5034411;28;20708;-62
2020/12/03 07:32:31;;;;;;;0.30;0.30;;;2.40;99.90;;;;;;5034723;28;20202;-62
2020/12/03 07:35:36;;;;;;;0.30;0.30;;;2.50;99.90;;;;;;5034904;28;20186;-62
2020/12/03 07:38:11;;;;;;;0.50;0.50;;;2.60;99.90;;;;;;5035080;28;20173;-61
2020/12/03 07:40:37;;;;;;;0.30;0.30;;;2.70;99.90;;;;;;5034826;28;20155;-62
2020/12/03 07:43:13;;;;;;;1.90;1.80;;;2.70;99.90;;;;;;5034877;28;20541;-62
2020/12/03 07:45:43;;;;;;;0.43;0.43;;;2.70;99.90;;;;;;5015369;28;20183;-62
2020/12/03 07:48:18;;;;;;;0.30;0.30;;;2.70;99.90;;;;;;5016480;28;20534;-61
2020/12/03 07:50:50;;;;;;;0.30;0.30;;;2.70;99.90;;;;;;5034300;28;20208;-62
2020/12/03 07:53:24;;;;;;;0.40;0.40;;;2.70;99.90;;;;;;5034759;28;20221;-62
2020/12/03 07:55:51;;;;;;;0.30;0.30;;;2.80;99.90;;;;;;5034806;28;20530;-62
2020/12/03 07:58:35;;;;;;;0.30;0.30;;;2.80;99.90;;;;;;5034388;28;20518;-62
2020/12/03 08:01:02;;;;;;;0.30;0.30;;;2.80;99.90;;;;;;5034132;28;20231;-61
2020/12/03 08:03:40;;;;;;;0.40;0.40;;;2.90;99.90;;;;;;5034057;28;20231;-61
2020/12/03 08:06:15;;;;;;;0.30;0.30;;;3.00;99.90;;;;;;5034410;28;20645;-62
2020/12/03 08:08:42;;;;;;;0.30;0.30;;;3.00;99.90;;;;;;5034065;28;20189;-61
2020/12/03 08:11:34;;;;;;;0.30;0.30;;;3.00;99.90;;;;;;5033991;28;20217;-61
2020/12/03 08:14:00;;;;;;;3.80;3.60;;;2.90;99.90;;;;;;5032835;28;20185;-61
2020/12/03 08:16:52;;;;;;;0.30;0.30;;;3.00;99.90;;;;;;5034144;28;20206;-61
2020/12/03 08:19:30;;;;;;;0.30;0.30;;;3.00;99.90;;;;;;5013251;28;20422;-62
2020/12/03 08:21:56;;;;;;;0.40;0.40;;;3.00;99.90;;;;;;5013891;28;20561;-62
2020/12/03 08:24:26;;;;;;;0.30;0.30;;;3.10;99.90;;;;;;5014262;28;20174;-62
2020/12/03 08:27:00;;;;;;;0.85;0.85;;;3.20;99.90;;;;;;5017407;28;20652;-61
2020/12/03 08:29:39;;;;;;;0.30;0.30;;;3.20;99.90;;;;;;5034063;28;20184;-61
2020/12/03 08:32:05;;;;;;;0.38;0.38;;;3.20;99.90;;;;;;5032940;28;20555;-61
2020/12/03 08:34:35;;;;;;;0.30;0.30;;;3.20;99.90;;;;;;5033947;28;20188;-61
2020/12/03 08:37:02;;;;;;;0.30;0.30;;;3.20;99.90;;;;;;5033715;28;20296;-62
2020/12/03 08:39:30;;;;;;;0.30;0.30;;;3.30;99.90;;;;;;5033985;28;20253;-62
2020/12/03 08:41:56;;;;;;;0.30;0.30;;;3.30;99.90;;;;;;5033408;28;20193;-61
2020/12/03 08:44:23;;;;;;;0.30;0.20;;;3.40;99.90;;;;;;5033922;28;20181;-62
2020/12/03 08:46:54;;;;;;;0.35;0.35;;;3.50;99.90;;;;;;5033429;28;20170;-62
2020/12/03 08:49:25;;;;;;;0.30;0.30;;;3.60;99.90;;;;;;5033715;28;20186;-62
2020/12/03 08:51:53;;;;;;;0.30;0.30;;;3.60;99.90;;;;;;5033249;28;20248;-62
2020/12/03 08:54:26;;;;;;;1.05;1.00;;;3.60;99.90;;;;;;5033273;28;20293;-62
2020/12/03 08:56:57;;;;;;;0.30;0.30;;;3.60;99.90;;;;;;5033670;28;20221;-62
2020/12/03 08:59:30;;;;;;;0.40;0.40;;;3.60;99.90;;;;;;5033576;28;20248;-61
2020/12/03 09:02:11;;;;;;;0.50;0.50;;;3.60;99.90;;;;;;5033324;28;20216;-61
2020/12/03 09:04:42;;;;;;;0.35;0.35;;;3.60;99.90;;;;;;5033624;28;20184;-61
2020/12/03 09:07:12;;;;;;;0.30;0.30;;;3.60;99.90;;;;;;5033620;28;20178;-61
2020/12/03 09:09:42;;;;;;;0.30;0.30;;;3.70;99.90;;;;;;5032776;28;20212;-60
2020/12/03 09:12:10;;;;;;;2.15;1.05;;;3.80;99.90;;;;;;5033258;28;20607;-69
2020/12/03 09:14:40;;;;;;;0.77;0.77;;;3.90;99.90;;;;;;5032668;28;20632;-61
2020/12/03 09:17:09;;;;;;;0.30;0.20;;;4.00;99.90;;;;;;5033389;28;20252;-63
2020/12/03 09:19:35;;;;;;;0.85;0.85;;;4.10;99.90;;;;;;5033175;28;20206;-62
2020/12/03 09:22:02;;;;;;;0.30;0.30;;;4.20;99.90;;;;;;5032837;28;20288;-60
2020/12/03 09:24:29;;;;;;;0.88;0.88;;;4.30;99.90;;;;;;5033374;28;20206;-62
2020/12/03 09:27:02;;;;;;;0.38;0.38;;;4.30;99.90;;;;;;5033358;28;20188;-63
2020/12/03 09:29:28;;;;;;;0.40;0.40;;;4.30;99.90;;;;;;5032833;28;20178;-62
2020/12/03 09:32:02;;;;;;;0.30;0.30;;;4.20;99.90;;;;;;5032811;28;20284;-62
2020/12/03 09:34:33;;;;;;;0.40;0.40;;;4.20;99.90;;;;;;5033370;28;20256;-62
2020/12/03 09:37:01;;;;;;;0.40;0.40;;;4.00;99.90;;;;;;5032857;28;20208;-62
2020/12/03 09:39:29;;;;;;;0.50;0.50;;;3.90;99.90;;;;;;5032670;28;20726;-62
2020/12/03 09:41:56;;;;;;;0.30;0.30;;;3.90;99.90;;;;;;5032583;28;20201;-62
2020/12/03 09:44:23;;;;;;;0.30;0.30;;;3.80;99.90;;;;;;5033187;28;20178;-62
2020/12/03 09:46:52;;;;;;;1.90;1.90;;;3.70;99.90;;;;;;5032959;28;20185;-62
2020/12/03 09:49:18;;;;;;;0.40;0.40;;;3.80;99.90;;;;;;5032848;28;20178;-62
2020/12/03 09:51:45;;;;;;;0.30;0.30;;;3.80;99.90;;;;;;5032535;28;20196;-61
2020/12/03 09:54:12;;;;;;;0.38;0.38;;;3.90;99.90;;;;;;5032940;28;20655;-61
2020/12/03 09:56:38;;;;;;;0.40;0.40;;;3.90;99.90;;;;;;5033259;28;20202;-61
2020/12/03 09:59:06;;;;;;;0.30;0.30;;;3.90;99.90;;;;;;5032594;28;20178;-61
2020/12/03 10:01:59;;;;;;;1.05;1.05;;;3.90;99.90;;;;;;5032598;28;20289;-61
2020/12/03 10:04:55;;;;;;;0.40;0.40;;;4.00;99.90;;;;;;5033091;28;20182;-61
2020/12/03 10:07:48;;;;;;;0.30;0.30;;;4.00;99.90;;;;;;5033053;28;20202;-62
2020/12/03 10:10:45;;;;;;;0.30;0.30;;;4.00;99.90;;;;;;5032672;28;20231;-63
2020/12/03 10:13:32;;;;;;;0.30;0.30;;;4.00;99.90;;;;;;5032888;28;20197;-62
2020/12/03 10:16:09;;;;;;;0.30;0.30;;;4.20;99.90;;;;;;5032868;28;20537;-61
2020/12/03 10:18:50;;;;;;;0.50;0.50;;;4.20;99.90;;;;;;5032656;28;20150;-62
2020/12/03 10:21:25;;;;;;;1.40;1.30;;;4.20;99.90;;;;;;5032340;28;20694;-61
2020/12/03 10:24:12;;;;;;;0.30;0.30;;;4.30;99.90;;;;;;5032750;28;20281;-62
2020/12/03 10:27:02;;;;;;;0.57;0.57;;;4.30;99.90;;;;;;5035251;28;20224;-61
2020/12/03 10:29:31;;;;;;;0.30;0.20;;;4.40;99.90;;;;;;5036242;28;20178;-61
2020/12/03 10:31:59;;;;;;;3.28;3.13;;;4.40;99.90;;;;;;5035986;28;20209;-61
2020/12/03 10:34:29;;;;;;;0.30;0.30;;;4.40;99.90;;;;;;5036418;28;20174;-61
2020/12/03 10:37:01;;;;;;;1.48;1.38;;;4.50;99.90;;;;;;5036428;28;20534;-61
2020/12/03 10:39:43;;;;;;;0.30;0.30;;;4.60;99.90;;;;;;5035996;28;20190;-60
2020/12/03 10:42:11;;;;;;;0.88;0.70;;;4.80;99.90;;;;;;5036378;28;20209;-64
2020/12/03 10:44:40;;;;;;;0.63;0.63;;;4.90;99.90;;;;;;5036210;28;20185;-63
2020/12/03 10:47:11;;;;;;;0.30;0.30;;;5.10;99.90;;;;;;5036380;28;20233;-62
2020/12/03 10:49:38;;;;;;;0.30;0.20;;;5.40;99.90;;;;;;5036126;28;20196;-61
2020/12/03 10:52:04;;;;;;;0.70;0.70;;;5.90;99.90;;;;;;5036217;28;20202;-60
2020/12/03 10:54:34;;;;;;;1.42;1.42;;;6.20;99.90;;;;;;5036287;28;20226;-61
2020/12/03 10:57:16;;;;;;;0.30;0.20;;;6.50;99.90;;;;;;5037026;28;20204;-61
2020/12/03 10:59:41;;;;;;;1.95;1.45;;;6.80;99.90;;;;;;5035497;28;20267;-61
2020/12/03 11:02:22;;;;;;;0.30;0.20;;;6.70;99.90;;;;;;5035742;28;20285;-61
2020/12/03 11:04:49;;;;;;;1.60;1.17;;;6.60;99.90;;;;;;5035812;28;20411;-61
2020/12/03 11:07:15;;;;;;;0.68;0.68;;;6.50;99.90;;;;;;5035756;28;20517;-62
2020/12/03 11:09:42;;;;;;;0.30;0.30;;;6.30;99.90;;;;;;5034829;28;20185;-61
2020/12/03 11:12:11;;;;;;;0.30;0.30;;;6.10;99.90;;;;;;5035358;28;20705;-62
2020/12/03 11:14:37;;;;;;;2.70;2.50;;;5.90;99.90;;;;;;5035568;28;20174;-61
2020/12/03 11:17:21;;;;;;;0.30;0.30;;;5.90;99.90;;;;;;5035320;28;20280;-62
2020/12/03 11:19:50;;;;;;;0.40;0.40;;;5.80;99.90;;;;;;5034887;28;20170;-62
2020/12/03 11:22:36;;;;;;;0.30;0.30;;;5.80;99.90;;;;;;5035169;28;20183;-62
2020/12/03 11:25:04;;;;;;;0.30;0.30;;;5.70;99.90;;;;;;5035163;28;20190;-62
2020/12/03 11:27:30;;;;;;;1.48;1.48;;;5.60;99.90;;;;;;5035307;28;20170;-62
2020/12/03 11:29:56;;;;;;;0.30;0.20;;;5.50;99.90;;;;;;5034546;28;20237;-62
2020/12/03 11:32:25;;;;;;;0.30;0.30;;;5.40;99.90;;;;;;5034925;28;20704;-62
2020/12/03 11:34:51;;;;;;;1.02;0.82;;;5.40;99.90;;;;;;5035164;28;20178;-63
2020/12/03 11:37:25;;;;;;;0.52;0.52;;;5.40;99.90;;;;;;5034149;28;20245;-61
2020/12/03 11:40:02;;;;;;;0.40;0.40;;;5.30;99.90;;;;;;5034111;28;20205;-62
2020/12/03 11:42:40;;;;;;;0.40;0.40;;;5.20;99.90;;;;;;5035019;28;20549;-62
2020/12/03 11:48:09;;;;;;;0.30;0.30;;;5.10;99.90;;;;;;5033742;28;20644;-61
2020/12/03 11:50:37;;;;;;;0.30;0.30;;;5.10;99.90;;;;;;5033963;28;20178;-62
2020/12/03 11:53:05;;;;;;;0.30;0.30;;;5.10;99.90;;;;;;5034250;28;20611;-61
2020/12/03 11:55:36;;;;;;;0.30;0.30;;;5.10;99.90;;;;;;5034538;28;20206;-61
2020/12/03 11:58:06;;;;;;;1.00;1.00;;;5.10;99.90;;;;;;5034655;28;20658;-61
2020/12/03 12:00:32;;;;;;;1.15;1.15;;;5.10;99.90;;;;;;5034095;28;20550;-62
2020/12/03 12:03:02;;;;;;;0.30;0.30;;;5.20;99.90;;;;;;5034615;28;20198;-61
2020/12/03 12:10:59;;;;;;;0.30;0.30;;;5.10;99.90;;;;;;5034031;28;20265;-61
2020/12/03 12:13:25;;;;;;;1.75;1.30;;;5.10;99.90;;;;;;5034088;28;20174;-61
2020/12/03 12:15:51;;;;;;;0.73;0.73;;;5.00;99.90;;;;;;5034355;28;20217;-61
2020/12/03 12:18:17;;;;;;;0.30;0.30;;;5.00;99.90;;;;;;5034135;28;20229;-63
2020/12/03 12:20:43;;;;;;;0.30;0.30;;;5.00;99.90;;;;;;5033797;28;20220;-62
2020/12/03 12:23:09;;;;;;;0.40;0.40;;;4.90;99.90;;;;;;5034260;28;20696;-62
2020/12/03 12:25:34;;;;;;;0.30;0.30;;;5.00;99.90;;;;;;5034073;28;20425;-62
2020/12/03 12:28:00;;;;;;;0.30;0.30;;;5.00;99.90;;;;;;5033983;28;20273;-61
2020/12/03 12:30:26;;;;;;;0.80;0.80;;;5.10;99.90;;;;;;5033796;28;20264;-61
2020/12/03 12:32:52;;;;;;;0.30;0.30;;;5.10;99.90;;;;;;5033908;28;20767;-62
2020/12/03 12:35:18;;;;;;;0.60;0.60;;;5.10;99.90;;;;;;5033569;28;20174;-61
2020/12/03 12:37:43;;;;;;;0.30;0.30;;;5.10;99.90;;;;;;5032925;28;20405;-62
2020/12/03 12:40:09;;;;;;;0.40;0.40;;;5.10;99.90;;;;;;5033631;28;20166;-61
2020/12/03 12:42:35;;;;;;;0.30;0.30;;;5.10;99.90;;;;;;5033840;28;20199;-61
2020/12/03 12:45:01;;;;;;;0.30;0.30;;;5.00;99.90;;;;;;5033428;28;20490;-61
2020/12/03 12:47:27;;;;;;;0.80;0.80;;;5.00;99.90;;;;;;5033725;28;20420;-61
2020/12/03 12:49:52;;;;;;;0.30;0.30;;;5.10;99.90;;;;;;5033311;28;20178;-62
2020/12/03 12:52:18;;;;;;;0.30;0.30;;;5.10;99.90;;;;;;5033606;28;20443;-62
2020/12/03 12:54:44;;;;;;;0.30;0.30;;;5.10;99.90;;;;;;5033462;28;20178;-62
2020/12/03 12:57:10;;;;;;;0.50;0.50;;;5.10;99.90;;;;;;5033652;28;20622;-61
2020/12/03 12:59:36;;;;;;;0.60;0.60;;;5.10;99.90;;;;;;5033650;28;20174;-62
2020/12/03 13:02:02;;;;;;;0.30;0.30;;;5.00;99.90;;;;;;5033304;28;20243;-61
2020/12/03 13:04:27;;;;;;;0.40;0.40;;;5.00;99.90;;;;;;5033306;28;20879;-61
2020/12/03 13:06:56;;;;;;;0.97;0.97;;;5.00;99.90;;;;;;5033600;28;20409;-61
2020/12/03 13:09:22;;;;;;;0.50;0.50;;;5.00;99.90;;;;;;5033554;28;20576;-61
2020/12/03 13:11:48;;;;;;;0.30;0.30;;;5.00;99.90;;;;;;5032939;28;20644;-61
2020/12/03 13:14:14;;;;;;;0.30;0.30;;;5.00;99.90;;;;;;5033133;28;20186;-62
2020/12/03 13:16:40;;;;;;;0.30;0.30;;;5.10;99.90;;;;;;5033314;28;20883;-62
2020/12/03 13:19:07;;;;;;;0.70;0.60;;;5.10;99.90;;;;;;5033356;28;20194;-61
2020/12/03 13:21:33;;;;;;;0.40;0.40;;;5.20;99.90;;;;;;5032861;28;20221;-62
2020/12/03 13:23:59;;;;;;;0.40;0.40;;;5.20;99.90;;;;;;5033106;28;20696;-62
2020/12/03 13:26:25;;;;;;;0.93;0.85;;;5.20;99.90;;;;;;5033098;28;20217;-62
2020/12/03 13:28:52;;;;;;;0.30;0.30;;;5.20;99.90;;;;;;5033324;28;20178;-62
2020/12/03 13:31:18;;;;;;;0.30;0.30;;;5.20;99.90;;;;;;5033009;28;20488;-62